createdAt,value
2018-12-14T00:00:11.894Z,33.10
2018-12-14T00:02:39.455Z,33.30
2018-12-14T00:05:07.008Z,34.17
2018-12-14T00:07:34.565Z,36.30
2018-12-14T00:10:02.087Z,36.67
2018-12-14T00:12:29.571Z,31.87
2018-12-14T00:14:57.071Z,33.97
2018-12-14T00:17:24.537Z,38.47
2018-12-14T00:19:52.114Z,34.37
2018-12-14T00:22:19.657Z,34.37
2018-12-14T00:24:47.119Z,30.63
2018-12-14T00:27:14.733Z,35.37
2018-12-14T00:29:42.379Z,31.10
2018-12-14T00:32:10.369Z,38.20
2018-12-14T00:34:37.879Z,33.93
2018-12-14T00:37:05.342Z,29.90
2018-12-14T00:39:32.813Z,32.77
2018-12-14T00:42:00.331Z,33.97
2018-12-14T00:44:27.805Z,35.07
2018-12-14T00:46:55.389Z,30.07
2018-12-14T00:49:22.885Z,31.30
2018-12-14T00:51:51.089Z,31.87
2018-12-14T00:54:18.606Z,32.13
2018-12-14T00:56:46.070Z,31.93
2018-12-14T00:59:14.138Z,29.30
2018-12-14T01:01:41.683Z,32.57
2018-12-14T01:04:09.227Z,33.27
2018-12-14T01:06:36.719Z,30.40
2018-12-14T01:09:05.379Z,34.57
2018-12-14T01:11:32.886Z,30.27
2018-12-14T01:14:00.478Z,32.27
2018-12-14T01:16:27.959Z,31.90
2018-12-14T01:18:55.425Z,28.93
2018-12-14T01:21:22.937Z,28.70
2018-12-14T01:23:50.413Z,26.20
2018-12-14T01:26:18.058Z,34.00
2018-12-14T01:28:46.146Z,31.63
2018-12-14T01:31:13.685Z,32.27
2018-12-14T01:33:41.184Z,30.67
2018-12-14T01:36:08.643Z,30.90
2018-12-14T01:38:36.105Z,31.60
2018-12-14T01:41:03.621Z,31.77
2018-12-14T01:43:31.114Z,34.53
2018-12-14T01:45:58.579Z,34.27
2018-12-14T01:48:26.053Z,34.33
2018-12-14T01:50:53.520Z,30.07
2018-12-14T01:53:21.066Z,33.33
2018-12-14T01:55:48.534Z,32.00
2018-12-14T01:58:16.051Z,35.27
2018-12-14T02:00:43.555Z,35.87
2018-12-14T02:03:11.070Z,36.00
2018-12-14T02:05:38.539Z,30.43
2018-12-14T02:08:06.039Z,34.93
2018-12-14T02:10:33.543Z,35.13
2018-12-14T02:13:01.014Z,37.63
2018-12-14T02:15:28.473Z,31.93
2018-12-14T02:17:56.273Z,32.50
2018-12-14T02:20:23.785Z,35.30
2018-12-14T02:22:51.265Z,28.53
2018-12-14T02:25:18.729Z,33.57
2018-12-14T02:27:46.577Z,34.37
2018-12-14T02:30:25.907Z,33.67
2018-12-14T02:32:53.391Z,31.43
2018-12-14T02:35:20.868Z,30.47
2018-12-14T02:37:48.364Z,34.03
2018-12-14T02:40:15.937Z,31.43
2018-12-14T02:42:44.376Z,34.00
2018-12-14T02:45:11.929Z,32.83
2018-12-14T02:47:39.436Z,33.53
2018-12-14T02:50:07.007Z,31.87
2018-12-14T02:52:34.491Z,33.30
2018-12-14T02:55:02.022Z,35.57
2018-12-14T02:57:30.480Z,29.93
2018-12-14T02:59:57.949Z,32.60
2018-12-14T03:02:25.512Z,32.17
2018-12-14T03:04:53.068Z,39.90
2018-12-14T03:07:20.525Z,34.53
2018-12-14T03:09:48.041Z,36.40
2018-12-14T03:12:15.610Z,34.93
2018-12-14T03:14:43.089Z,33.90
2018-12-14T03:17:10.654Z,32.93
2018-12-14T03:19:38.193Z,33.50
2018-12-14T03:22:05.684Z,34.13
2018-12-14T03:24:33.150Z,32.23
2018-12-14T03:27:00.676Z,37.50
2018-12-14T03:29:28.159Z,31.67
2018-12-14T03:31:55.706Z,33.67
2018-12-14T03:34:23.207Z,33.87
2018-12-14T03:36:50.686Z,37.07
2018-12-14T03:39:18.133Z,38.57
2018-12-14T03:41:46.072Z,31.83
2018-12-14T03:44:13.587Z,32.23
2018-12-14T03:46:42.204Z,32.40
2018-12-14T03:49:09.774Z,35.00
2018-12-14T03:51:37.336Z,34.03
2018-12-14T03:54:04.809Z,36.80
2018-12-14T03:56:32.535Z,31.20
2018-12-14T03:59:00.037Z,35.13
2018-12-14T04:01:27.620Z,36.67
2018-12-14T04:03:55.197Z,30.87
2018-12-14T04:06:23.735Z,33.20
2018-12-14T04:08:51.394Z,32.97
2018-12-14T04:11:18.968Z,37.07
2018-12-14T04:13:46.457Z,32.67
2018-12-14T04:16:13.952Z,33.50
2018-12-14T04:18:42.114Z,31.33
2018-12-14T04:21:09.596Z,34.47
2018-12-14T04:23:39.020Z,29.50
2018-12-14T04:26:06.482Z,32.03
2018-12-14T04:28:34.323Z,33.47
2018-12-14T04:31:01.837Z,33.17
2018-12-14T04:33:29.762Z,32.87
2018-12-14T04:35:57.353Z,26.57
2018-12-14T04:38:24.896Z,30.40
2018-12-14T04:40:52.486Z,31.50
2018-12-14T04:43:19.983Z,32.07
2018-12-14T04:45:47.451Z,33.23
2018-12-14T04:48:15.451Z,32.03
2018-12-14T04:50:43.411Z,31.40
2018-12-14T04:53:11.047Z,35.43
2018-12-14T04:55:38.518Z,29.57
2018-12-14T04:58:05.996Z,27.63
2018-12-14T05:00:33.620Z,27.83
2018-12-14T05:03:01.161Z,32.13
2018-12-14T05:05:28.665Z,27.20
2018-12-14T05:07:56.168Z,29.17
2018-12-14T05:10:23.657Z,29.43
2018-12-14T05:12:56.062Z,26.33
2018-12-14T05:15:20.723Z,28.63
2018-12-14T05:17:48.212Z,27.27
2018-12-14T05:20:15.764Z,29.43
2018-12-14T05:22:43.271Z,26.73
2018-12-14T05:25:10.779Z,27.77
2018-12-14T05:27:38.280Z,29.67
2018-12-14T05:30:07.324Z,29.50
2018-12-14T05:32:34.822Z,27.43
2018-12-14T05:35:02.408Z,28.23
2018-12-14T05:37:29.895Z,28.63
2018-12-14T05:39:57.393Z,25.93
2018-12-14T05:42:24.917Z,27.07
2018-12-14T05:44:52.423Z,32.17
2018-12-14T05:47:19.923Z,28.90
2018-12-14T05:49:47.893Z,29.27
2018-12-14T05:52:15.976Z,27.03
2018-12-14T05:54:43.455Z,26.80
2018-12-14T05:57:11.020Z,29.60
2018-12-14T05:59:38.509Z,30.53
2018-12-14T06:02:06.019Z,29.07
2018-12-14T06:04:33.497Z,28.93
2018-12-14T06:07:00.993Z,31.40
2018-12-14T06:09:28.492Z,27.57
2018-12-14T06:11:55.995Z,30.27
2018-12-14T06:14:23.479Z,31.03
2018-12-14T06:16:50.958Z,28.63
2018-12-14T06:19:18.439Z,27.70
2018-12-14T06:21:45.971Z,29.00
2018-12-14T06:24:13.463Z,29.20
2018-12-14T06:26:41.003Z,30.67
2018-12-14T06:29:08.463Z,29.67
2018-12-14T06:31:35.935Z,27.83
2018-12-14T06:34:03.389Z,29.30
2018-12-14T06:36:30.833Z,28.63
2018-12-14T06:38:58.294Z,31.27
2018-12-14T06:41:25.770Z,28.77
2018-12-14T06:43:53.233Z,31.63
2018-12-14T06:46:20.773Z,34.40
2018-12-14T06:48:48.272Z,31.30
2018-12-14T06:51:15.749Z,27.07
2018-12-14T06:53:43.204Z,27.50
2018-12-14T06:56:10.658Z,28.53
2018-12-14T06:58:38.560Z,28.33
2018-12-14T07:01:06.031Z,29.90
2018-12-14T07:03:33.583Z,24.03
2018-12-14T07:06:01.044Z,27.97
2018-12-14T07:08:28.503Z,32.30
2018-12-14T07:10:55.975Z,32.37
2018-12-14T07:13:23.444Z,29.93
2018-12-14T07:15:50.991Z,29.53
2018-12-14T07:18:18.525Z,33.03
2018-12-14T07:20:46.007Z,31.03
2018-12-14T07:23:14.420Z,31.90
2018-12-14T07:25:41.872Z,32.60
2018-12-14T07:28:09.361Z,31.73
2018-12-14T07:30:36.873Z,29.37
2018-12-14T07:33:04.447Z,31.87
2018-12-14T07:35:31.903Z,29.40
2018-12-14T07:37:59.361Z,35.07
2018-12-14T07:40:26.892Z,33.53
2018-12-14T07:42:54.371Z,28.07
2018-12-14T07:45:21.838Z,28.27
2018-12-14T07:47:49.288Z,32.30
2018-12-14T07:50:16.859Z,30.40
2018-12-14T07:52:44.314Z,27.47
2018-12-14T07:55:11.779Z,31.93
2018-12-14T07:57:39.290Z,32.80
2018-12-14T08:00:07.939Z,35.23
2018-12-14T08:02:35.443Z,27.60
2018-12-14T08:05:03.418Z,31.97
2018-12-14T08:07:30.888Z,29.57
2018-12-14T08:09:58.336Z,29.27
2018-12-14T08:12:25.807Z,30.93
2018-12-14T08:14:53.283Z,31.97
2018-12-14T08:17:20.737Z,32.77
2018-12-14T08:19:48.176Z,28.83
2018-12-14T08:22:15.659Z,30.57
2018-12-14T08:24:43.121Z,27.00
2018-12-14T08:27:10.575Z,27.27
2018-12-14T08:29:38.059Z,29.40
2018-12-14T08:32:05.606Z,28.50
2018-12-14T08:34:33.127Z,28.87
2018-12-14T08:37:00.649Z,27.80
2018-12-14T08:39:28.113Z,32.97
2018-12-14T08:41:55.581Z,26.53
2018-12-14T08:44:23.053Z,27.20
2018-12-14T08:46:50.500Z,28.37
2018-12-14T08:49:17.957Z,26.47
2018-12-14T08:51:45.412Z,27.43
2018-12-14T08:54:12.915Z,25.80
2018-12-14T08:56:40.409Z,24.23
2018-12-14T08:59:07.884Z,25.20
2018-12-14T09:01:35.334Z,25.43
2018-12-14T09:04:02.781Z,25.57
2018-12-14T09:06:30.253Z,26.13
2018-12-14T09:08:57.697Z,26.73
2018-12-14T09:11:25.181Z,27.80
2018-12-14T09:13:52.716Z,24.13
2018-12-14T09:16:20.174Z,26.87
2018-12-14T09:18:48.408Z,22.63
2018-12-14T09:21:15.873Z,23.83
2018-12-14T09:23:43.328Z,25.07
2018-12-14T09:26:10.864Z,23.83
2018-12-14T09:28:38.821Z,24.67
2018-12-14T09:31:06.261Z,26.53
2018-12-14T09:33:33.721Z,24.73
2018-12-14T09:36:01.173Z,26.40
2018-12-14T09:38:28.647Z,25.37
2018-12-14T09:40:57.096Z,26.53
2018-12-14T09:43:24.536Z,21.80
2018-12-14T09:45:52.013Z,22.47
2018-12-14T09:48:19.488Z,26.80
2018-12-14T09:50:46.988Z,27.17
2018-12-14T09:53:14.465Z,26.53
2018-12-14T09:55:41.905Z,23.97
2018-12-14T09:58:09.390Z,22.37
2018-12-14T10:00:36.887Z,24.57
2018-12-14T10:03:04.351Z,23.27
2018-12-14T10:05:31.895Z,24.97
2018-12-14T10:07:59.405Z,25.00
2018-12-14T10:10:26.848Z,24.27
2018-12-14T10:12:54.305Z,25.17
2018-12-14T10:15:21.762Z,20.87
2018-12-14T10:17:49.891Z,24.50
2018-12-14T10:20:17.406Z,23.10
2018-12-14T10:22:44.853Z,24.37
2018-12-14T10:25:12.315Z,22.60
2018-12-14T10:27:39.771Z,22.43
2018-12-14T10:30:09.351Z,24.70
2018-12-14T10:32:36.843Z,22.10
2018-12-14T10:35:07.296Z,23.87
2018-12-14T10:37:34.763Z,23.47
2018-12-14T10:40:02.274Z,23.33
2018-12-14T10:42:29.728Z,22.50
2018-12-14T10:44:57.174Z,23.47
2018-12-14T10:47:24.635Z,27.33
2018-12-14T10:49:52.069Z,23.97
2018-12-14T10:52:19.768Z,20.83
2018-12-14T10:54:47.635Z,22.20
2018-12-14T10:57:16.280Z,22.67
2018-12-14T10:59:44.648Z,24.57
2018-12-14T11:02:12.171Z,25.00
2018-12-14T11:04:39.629Z,22.90
2018-12-14T11:07:07.104Z,22.97
2018-12-14T11:09:34.613Z,24.83
2018-12-14T11:12:02.127Z,25.70
2018-12-14T11:14:29.579Z,24.60
2018-12-14T11:16:57.054Z,22.83
2018-12-14T11:19:24.511Z,22.37
2018-12-14T11:21:51.976Z,27.83
2018-12-14T11:24:20.055Z,24.43
2018-12-14T11:26:47.535Z,27.67
2018-12-14T11:29:15.007Z,23.23
2018-12-14T11:31:42.475Z,21.43
2018-12-14T11:34:10.217Z,23.43
2018-12-14T11:36:37.683Z,27.97
2018-12-14T11:39:06.249Z,25.93
2018-12-14T11:41:33.761Z,31.00
2018-12-14T11:44:01.219Z,27.47
2018-12-14T11:46:28.714Z,26.70
2018-12-14T11:48:56.221Z,23.87
2018-12-14T11:51:23.707Z,23.20
2018-12-14T11:53:51.175Z,27.07
2018-12-14T11:56:18.627Z,25.70
2018-12-14T11:58:46.112Z,25.37
2018-12-14T12:01:13.616Z,27.47
2018-12-14T12:03:42.859Z,24.57
2018-12-14T12:06:10.555Z,27.80
2018-12-14T12:08:38.024Z,23.50
2018-12-14T12:11:05.482Z,25.50
2018-12-14T12:13:32.917Z,22.90
2018-12-14T12:16:00.382Z,23.27
2018-12-14T12:18:27.848Z,21.73
2018-12-14T12:20:55.326Z,20.57
2018-12-14T12:23:22.788Z,22.50
2018-12-14T12:25:50.324Z,23.80
2018-12-14T12:28:18.174Z,26.03
2018-12-14T12:30:45.621Z,23.90
2018-12-14T12:33:13.092Z,24.67
2018-12-14T12:35:40.656Z,27.93
2018-12-14T12:38:08.115Z,22.53
2018-12-14T12:40:35.596Z,24.07
2018-12-14T12:43:03.052Z,20.87
2018-12-14T12:45:30.507Z,24.20
2018-12-14T12:47:59.454Z,25.17
2018-12-14T12:50:26.946Z,21.63
2018-12-14T12:52:54.475Z,24.27
2018-12-14T12:55:24.963Z,21.13
2018-12-14T12:57:52.624Z,23.50
2018-12-14T13:00:20.894Z,25.40
2018-12-14T13:02:52.346Z,24.60
2018-12-14T13:05:21.708Z,28.03
2018-12-14T13:07:49.303Z,28.80
2018-12-14T13:10:17.330Z,27.03
2018-12-14T13:12:49.514Z,24.17
2018-12-14T13:15:17.620Z,28.37
2018-12-14T13:17:45.102Z,22.60
2018-12-14T13:20:12.560Z,22.07
2018-12-14T13:22:40.091Z,20.50
2018-12-14T13:25:10.341Z,22.57
2018-12-14T13:27:37.849Z,20.77
2018-12-14T13:30:12.012Z,20.20
2018-12-14T13:32:39.880Z,22.70
2018-12-14T13:35:08.439Z,22.30
2018-12-14T13:37:39.504Z,22.37
2018-12-14T13:40:07.261Z,24.43
2018-12-14T13:42:34.875Z,18.73
2018-12-14T13:45:06.486Z,22.63
2018-12-14T13:47:35.402Z,21.27
2018-12-14T13:50:05.853Z,20.13
2018-12-14T13:52:33.374Z,19.10
2018-12-14T13:55:00.857Z,22.87
2018-12-14T13:57:28.418Z,21.00
2018-12-14T13:59:55.939Z,24.47
2018-12-14T14:02:24.299Z,22.43
2018-12-14T14:04:51.823Z,21.73
2018-12-14T14:07:19.453Z,19.23
2018-12-14T14:09:47.100Z,18.83
2018-12-14T14:12:14.654Z,17.90
2018-12-14T14:14:42.177Z,20.57
2018-12-14T14:17:09.669Z,21.27
2018-12-14T14:19:37.612Z,20.07
2018-12-14T14:22:05.547Z,17.63
2018-12-14T14:24:33.070Z,21.33
2018-12-14T14:27:00.549Z,19.63
2018-12-14T14:29:28.062Z,19.67
2018-12-14T14:31:55.524Z,21.23
2018-12-14T14:34:23.559Z,19.07
2018-12-14T14:36:51.097Z,19.57
2018-12-14T14:39:18.557Z,20.37
2018-12-14T14:41:46.617Z,17.73
2018-12-14T14:44:14.092Z,18.47
2018-12-14T14:46:41.555Z,17.23
2018-12-14T14:49:09.102Z,18.00
2018-12-14T14:51:36.647Z,22.07
2018-12-14T14:54:04.170Z,18.27
2018-12-14T14:56:31.638Z,17.80
2018-12-14T14:58:59.100Z,19.73
2018-12-14T15:01:26.621Z,20.10
2018-12-14T15:03:54.575Z,20.67
2018-12-14T15:06:22.029Z,20.57
2018-12-14T15:08:50.163Z,15.23
2018-12-14T15:11:17.600Z,17.17
2018-12-14T15:13:45.056Z,19.07
2018-12-14T15:16:12.872Z,20.43
2018-12-14T15:18:41.025Z,17.43
2018-12-14T15:21:08.585Z,16.93
2018-12-14T15:23:36.084Z,17.67
2018-12-14T15:26:05.307Z,17.23
2018-12-14T15:28:32.800Z,16.20
2018-12-14T15:31:00.303Z,17.43
2018-12-14T15:33:27.777Z,16.20
2018-12-14T15:35:55.413Z,17.90
2018-12-14T15:38:22.949Z,18.33
2018-12-14T15:40:50.423Z,19.77
2018-12-14T15:43:17.899Z,22.07
2018-12-14T15:45:45.471Z,20.90
2018-12-14T15:48:13.025Z,19.63
2018-12-14T15:50:40.607Z,17.33
2018-12-14T15:53:08.129Z,20.13
2018-12-14T15:55:36.950Z,19.13
2018-12-14T15:58:04.561Z,23.63
2018-12-14T16:00:32.093Z,18.37
2018-12-14T16:02:59.564Z,21.10
2018-12-14T16:05:28.560Z,17.00
2018-12-14T16:07:56.032Z,18.53
2018-12-14T16:10:23.915Z,20.00
2018-12-14T16:12:51.404Z,20.53
2018-12-14T16:15:20.283Z,22.27
2018-12-14T16:17:48.165Z,20.33
2018-12-14T16:20:16.857Z,23.27
2018-12-14T16:22:44.423Z,24.10
2018-12-14T16:25:11.903Z,21.17
2018-12-14T16:27:39.994Z,20.70
2018-12-14T16:30:09.050Z,28.67
2018-12-14T16:32:36.548Z,24.27
2018-12-14T16:35:05.227Z,23.40
2018-12-14T16:37:32.717Z,26.97
2018-12-14T16:40:00.196Z,19.83
2018-12-14T16:42:27.722Z,18.77
2018-12-14T16:44:55.685Z,23.13
2018-12-14T16:47:23.222Z,19.60
2018-12-14T16:49:51.381Z,23.57
2018-12-14T16:52:19.207Z,23.23
2018-12-14T16:54:46.736Z,23.43
2018-12-14T16:57:14.304Z,21.33
2018-12-14T16:59:41.800Z,25.57
2018-12-14T17:02:09.326Z,26.47
2018-12-14T17:04:36.841Z,23.13
2018-12-14T17:07:05.900Z,21.87
2018-12-14T17:09:33.915Z,28.33
2018-12-14T17:12:01.404Z,21.13
2018-12-14T17:14:28.878Z,21.93
2018-12-14T17:16:56.610Z,27.27
2018-12-14T17:19:24.145Z,24.93
2018-12-14T17:21:51.623Z,20.93
2018-12-14T17:24:19.191Z,29.47
2018-12-14T17:26:47.285Z,24.07
2018-12-14T17:29:15.485Z,30.03
2018-12-14T17:31:43.514Z,24.40
2018-12-14T17:34:11.083Z,23.57
2018-12-14T17:36:39.038Z,34.50
2018-12-14T17:39:06.664Z,25.73
2018-12-14T17:41:34.316Z,27.80
2018-12-14T17:44:02.654Z,27.23
2018-12-14T17:46:30.136Z,28.40
2018-12-14T17:48:58.457Z,29.17
2018-12-14T17:51:25.925Z,31.17
2018-12-14T17:53:53.377Z,29.07
2018-12-14T17:56:20.860Z,29.17
2018-12-14T17:58:48.960Z,33.03
2018-12-14T18:01:16.582Z,28.10
2018-12-14T18:03:44.108Z,29.63
2018-12-14T18:06:11.674Z,29.67
2018-12-14T18:08:39.135Z,30.00
2018-12-14T18:11:06.603Z,29.37
2018-12-14T18:13:34.079Z,25.40
2018-12-14T18:16:01.633Z,25.60
2018-12-14T18:18:29.125Z,28.60
2018-12-14T18:20:57.193Z,27.20
2018-12-14T18:23:24.683Z,30.37
2018-12-14T18:25:52.237Z,30.20
2018-12-14T18:28:19.734Z,31.43
2018-12-14T18:30:47.267Z,31.80
2018-12-14T18:33:14.773Z,30.67
2018-12-14T18:35:42.291Z,32.47
2018-12-14T18:38:09.788Z,31.53
2018-12-14T18:40:37.914Z,32.83
2018-12-14T18:43:05.420Z,37.87
2018-12-14T18:45:32.927Z,30.73
2018-12-14T18:48:00.419Z,30.03
2018-12-14T18:50:27.936Z,33.13
2018-12-14T18:52:55.443Z,27.93
2018-12-14T18:55:22.958Z,33.70
2018-12-14T18:57:50.527Z,33.47
2018-12-14T19:00:18.162Z,32.20
2018-12-14T19:02:45.662Z,32.83
2018-12-14T19:05:13.206Z,33.27
2018-12-14T19:07:40.731Z,39.90
2018-12-14T19:10:08.257Z,37.27
2018-12-14T19:12:35.957Z,31.97
2018-12-14T19:15:04.363Z,37.40
2018-12-14T19:17:31.828Z,32.90
2018-12-14T19:20:00.017Z,35.03
2018-12-14T19:22:27.480Z,32.80
2018-12-14T19:24:54.963Z,36.03
2018-12-14T19:27:22.471Z,35.90
2018-12-14T19:29:49.980Z,31.03
2018-12-14T19:32:17.627Z,36.20
2018-12-14T19:34:45.114Z,35.83
2018-12-14T19:37:12.634Z,42.17
2018-12-14T19:39:40.117Z,34.80
2018-12-14T19:42:07.641Z,30.57
2018-12-14T19:44:36.175Z,35.37
2018-12-14T19:47:03.656Z,37.93
2018-12-14T19:49:31.677Z,35.97
2018-12-14T19:52:00.352Z,34.13
2018-12-14T19:54:28.157Z,35.13
2018-12-14T19:56:56.835Z,30.87
2018-12-14T19:59:24.793Z,34.70
2018-12-14T20:01:52.387Z,34.80
2018-12-14T20:04:19.868Z,35.73
2018-12-14T20:06:57.372Z,35.80
2018-12-14T20:09:25.494Z,35.03
2018-12-14T20:11:53.706Z,35.30
2018-12-14T20:14:21.168Z,34.97
2018-12-14T20:16:48.693Z,37.20
2018-12-14T20:19:16.666Z,36.33
2018-12-14T20:21:45.111Z,35.97
2018-12-14T20:24:13.096Z,39.60
2018-12-14T20:26:40.661Z,37.17
2018-12-14T20:29:08.175Z,37.47
2018-12-14T20:31:36.203Z,36.60
2018-12-14T20:34:04.316Z,41.93
2018-12-14T20:36:31.813Z,36.37
2018-12-14T20:38:59.510Z,38.33
2018-12-14T20:41:27.235Z,33.77
2018-12-14T20:43:55.017Z,40.60
2018-12-14T20:46:22.653Z,39.90
2018-12-14T20:48:50.967Z,38.70
2018-12-14T20:51:19.227Z,36.40
2018-12-14T20:53:47.433Z,39.47
2018-12-14T20:56:15.312Z,40.87
2018-12-14T20:58:42.859Z,37.90
2018-12-14T21:01:10.426Z,38.43
2018-12-14T21:03:38.505Z,41.00
2018-12-14T21:06:05.960Z,39.67
2018-12-14T21:08:33.920Z,39.70
2018-12-14T21:11:01.669Z,40.47
2018-12-14T21:13:29.218Z,42.53
2018-12-14T21:15:57.379Z,37.57
2018-12-14T21:18:24.854Z,43.47
2018-12-14T21:20:52.321Z,39.20
2018-12-14T21:23:19.808Z,40.90
2018-12-14T21:25:47.364Z,41.90
2018-12-14T21:28:14.889Z,42.70
2018-12-14T21:30:42.415Z,43.33
2018-12-14T21:33:09.880Z,43.00
2018-12-14T21:35:37.445Z,40.17
2018-12-14T21:38:04.942Z,45.90
2018-12-14T21:40:32.783Z,38.10
2018-12-14T21:43:00.284Z,43.63
2018-12-14T21:45:27.804Z,48.27
2018-12-14T21:47:55.313Z,46.53
2018-12-14T21:50:22.800Z,44.50
2018-12-14T21:52:50.307Z,44.40
2018-12-14T21:55:17.791Z,41.10
2018-12-14T21:57:45.395Z,41.70
2018-12-14T22:00:13.015Z,45.67
2018-12-14T22:02:40.601Z,44.50
2018-12-14T22:05:08.935Z,43.63
2018-12-14T22:07:36.410Z,45.20
2018-12-14T22:10:05.752Z,44.33
2018-12-14T22:12:33.436Z,44.80
2018-12-14T22:15:01.313Z,42.37
2018-12-14T22:17:29.338Z,53.40
2018-12-14T22:19:56.829Z,44.30
2018-12-14T22:22:24.674Z,47.03
2018-12-14T22:24:52.149Z,45.03
2018-12-14T22:27:19.620Z,48.00
2018-12-14T22:29:47.082Z,46.17
2018-12-14T22:32:14.527Z,49.57
2018-12-14T22:34:41.989Z,49.53
2018-12-14T22:37:09.473Z,43.00
2018-12-14T22:39:37.803Z,47.50
2018-12-14T22:42:05.689Z,47.50
2018-12-14T22:44:33.244Z,46.43
2018-12-14T22:47:00.841Z,47.97
2018-12-14T22:49:28.457Z,46.33
2018-12-14T22:51:55.910Z,51.47
2018-12-14T22:54:23.365Z,47.13
2018-12-14T22:56:51.648Z,50.07
2018-12-14T22:59:19.116Z,47.87
2018-12-14T23:01:47.997Z,49.00
2018-12-14T23:04:15.490Z,43.50
2018-12-14T23:06:42.978Z,46.13
2018-12-14T23:09:10.598Z,49.23
2018-12-14T23:11:38.057Z,44.87
2018-12-14T23:14:06.241Z,56.03
2018-12-14T23:16:33.703Z,55.90
2018-12-14T23:19:02.089Z,47.37
2018-12-14T23:21:29.607Z,52.37
2018-12-14T23:23:57.112Z,53.90
2018-12-14T23:26:24.629Z,52.03
2018-12-14T23:28:52.171Z,47.80
2018-12-14T23:31:19.641Z,49.87
2018-12-14T23:33:47.092Z,49.67
2018-12-14T23:36:14.560Z,56.23
2018-12-14T23:38:42.065Z,45.50
2018-12-14T23:41:09.567Z,52.47
2018-12-14T23:43:37.054Z,49.90
2018-12-14T23:46:04.678Z,49.60
2018-12-14T23:48:32.151Z,45.57
2018-12-14T23:50:59.609Z,51.77
2018-12-14T23:53:27.095Z,43.73
2018-12-14T23:55:54.545Z,51.83
2018-12-14T23:58:22.005Z,48.53
